createdAt,value
2018-07-25T00:00:46.100Z,81.48
2018-07-25T00:01:45.979Z,81.67
2018-07-25T00:02:45.975Z,81.48
2018-07-25T00:03:45.975Z,81.44
2018-07-25T00:04:45.855Z,81.73
2018-07-25T00:05:45.855Z,81.77
2018-07-25T00:06:45.854Z,81.77
2018-07-25T00:07:45.735Z,81.29
2018-07-25T00:08:45.733Z,81.24
2018-07-25T00:09:45.738Z,81.63
2018-07-25T00:10:45.612Z,81.34
2018-07-25T00:11:45.613Z,81.63
2018-07-25T00:12:45.613Z,81.92
2018-07-25T00:13:45.494Z,82.02
2018-07-25T00:14:45.497Z,81.34
2018-07-25T00:15:45.499Z,82.02
2018-07-25T00:16:45.379Z,82.02
2018-07-25T00:17:45.371Z,81.82
2018-07-25T00:18:45.371Z,82.21
2018-07-25T00:19:45.368Z,82.21
2018-07-25T00:20:45.251Z,81.92
2018-07-25T00:21:45.251Z,81.82
2018-07-25T00:22:45.211Z,82.60
2018-07-25T00:23:45.134Z,82.50
2018-07-25T00:24:45.130Z,82.50
2018-07-25T00:25:45.132Z,82.60
2018-07-25T00:26:45.012Z,82.50
2018-07-25T00:27:45.011Z,82.21
2018-07-25T00:28:45.009Z,82.60
2018-07-25T00:29:44.891Z,82.98
2018-07-25T00:30:44.892Z,82.79
2018-07-25T00:31:44.888Z,82.69
2018-07-25T00:32:44.768Z,82.60
2018-07-25T00:33:44.767Z,82.60
2018-07-25T00:34:44.768Z,82.60
2018-07-25T00:35:44.648Z,82.40
2018-07-25T00:36:44.648Z,82.40
2018-07-25T00:37:44.646Z,82.11
2018-07-25T00:38:44.527Z,82.02
2018-07-25T00:39:44.529Z,81.92
2018-07-25T00:40:44.526Z,82.60
2018-07-25T00:41:44.408Z,82.60
2018-07-25T00:42:44.405Z,83.27
2018-07-25T00:43:44.404Z,83.56
2018-07-25T00:44:44.285Z,82.69
2018-07-25T00:45:44.285Z,82.60
2018-07-25T00:46:44.284Z,82.11
2018-07-25T00:47:44.167Z,82.21
2018-07-25T00:48:44.164Z,81.82
2018-07-25T00:49:44.168Z,82.40
2018-07-25T00:50:44.043Z,82.21
2018-07-25T00:51:44.045Z,83.18
2018-07-25T00:52:44.045Z,82.98
2018-07-25T00:53:44.001Z,82.60
2018-07-25T00:54:43.926Z,82.40
2018-07-25T00:55:43.923Z,82.79
2018-07-25T00:56:43.923Z,82.40
2018-07-25T00:57:43.802Z,82.50
2018-07-25T00:58:43.803Z,82.60
2018-07-25T00:59:43.802Z,82.60
2018-07-25T01:00:43.682Z,82.50
2018-07-25T01:01:43.683Z,82.60
2018-07-25T01:02:43.681Z,82.94
2018-07-25T01:03:43.562Z,83.47
2018-07-25T01:04:43.559Z,83.37
2018-07-25T01:05:43.560Z,83.56
2018-07-25T01:06:43.441Z,83.23
2018-07-25T01:07:43.439Z,83.85
2018-07-25T01:08:43.439Z,83.52
2018-07-25T01:09:43.320Z,83.72
2018-07-25T01:10:43.321Z,83.52
2018-07-25T01:11:43.321Z,83.72
2018-07-25T01:12:43.201Z,83.72
2018-07-25T01:13:43.198Z,84.00
2018-07-25T01:14:43.198Z,84.10
2018-07-25T01:15:43.078Z,84.20
2018-07-25T01:16:43.083Z,84.20
2018-07-25T01:17:43.077Z,84.48
2018-07-25T01:18:42.957Z,85.16
2018-07-25T01:19:43.041Z,85.36
2018-07-25T01:20:42.967Z,85.36
2018-07-25T01:21:42.837Z,85.26
2018-07-25T01:22:42.837Z,85.16
2018-07-25T01:23:42.835Z,85.74
2018-07-25T01:24:42.794Z,85.60
2018-07-25T01:25:42.792Z,85.64
2018-07-25T01:26:42.716Z,85.80
2018-07-25T01:27:42.674Z,85.60
2018-07-25T01:28:42.596Z,86.38
2018-07-25T01:29:42.595Z,86.08
2018-07-25T01:30:42.595Z,86.47
2018-07-25T01:31:42.475Z,86.47
2018-07-25T01:32:42.474Z,86.47
2018-07-25T01:33:42.475Z,86.76
2018-07-25T01:34:42.354Z,87.73
2018-07-25T01:35:42.354Z,87.05
2018-07-25T01:36:42.354Z,86.86
2018-07-25T01:37:42.233Z,86.76
2018-07-25T01:38:42.236Z,87.59
2018-07-25T01:39:42.130Z,87.53
2018-07-25T01:40:42.090Z,87.82
2018-07-25T01:41:42.051Z,87.92
2018-07-25T01:42:42.014Z,87.97
2018-07-25T01:43:41.973Z,88.07
2018-07-25T01:44:41.933Z,87.59
2018-07-25T01:45:42.003Z,87.82
2018-07-25T01:46:41.880Z,87.78
2018-07-25T01:47:41.882Z,87.78
2018-07-25T01:48:41.878Z,88.17
2018-07-25T01:49:41.762Z,87.68
2018-07-25T01:50:41.760Z,87.68
2018-07-25T01:51:41.759Z,88.26
2018-07-25T01:52:41.639Z,87.59
2018-07-25T01:53:41.638Z,87.88
2018-07-25T01:54:41.638Z,87.49
2018-07-25T01:55:41.517Z,88.17
2018-07-25T01:56:41.519Z,88.17
2018-07-25T01:57:41.517Z,88.36
2018-07-25T01:58:41.398Z,87.68
2018-07-25T01:59:41.397Z,87.78
2018-07-25T02:00:41.399Z,88.36
2018-07-25T02:01:41.276Z,88.45
2018-07-25T02:02:41.277Z,88.17
2018-07-25T02:03:41.275Z,87.97
2018-07-25T02:04:41.156Z,88.51
2018-07-25T02:05:41.156Z,88.79
2018-07-25T02:06:41.154Z,88.79
2018-07-25T02:07:41.035Z,88.51
2018-07-25T02:08:41.036Z,89.18
2018-07-25T02:09:41.037Z,88.79
2018-07-25T02:10:40.916Z,88.70
2018-07-25T02:11:40.918Z,89.09
2018-07-25T02:12:40.915Z,88.89
2018-07-25T02:13:40.793Z,89.09
2018-07-25T02:14:40.794Z,88.79
2018-07-25T02:15:40.792Z,89.28
2018-07-25T02:16:40.673Z,88.51
2018-07-25T02:17:40.674Z,89.37
2018-07-25T02:18:40.673Z,89.76
2018-07-25T02:19:40.552Z,89.47
2018-07-25T02:20:40.552Z,90.05
2018-07-25T02:21:40.553Z,90.24
2018-07-25T02:22:40.434Z,90.24
2018-07-25T02:23:40.432Z,89.95
2018-07-25T02:24:40.436Z,90.05
2018-07-25T02:25:40.393Z,90.15
2018-07-25T02:26:40.311Z,90.15
2018-07-25T02:27:40.311Z,90.53
2018-07-25T02:28:40.269Z,90.53
2018-07-25T02:29:40.194Z,90.53
2018-07-25T02:30:40.192Z,90.78
2018-07-25T02:31:40.190Z,91.16
2018-07-25T02:32:40.071Z,90.88
2018-07-25T02:33:40.073Z,90.68
2018-07-25T02:34:40.069Z,90.78
2018-07-25T02:35:39.948Z,90.88
2018-07-25T02:36:39.949Z,90.88
2018-07-25T02:37:39.951Z,91.06
2018-07-25T02:38:39.833Z,90.78
2018-07-25T02:39:39.827Z,90.68
2018-07-25T02:40:39.828Z,90.97
2018-07-25T02:41:39.710Z,90.78
2018-07-25T02:42:39.709Z,90.58
2018-07-25T02:43:39.714Z,90.68
2018-07-25T02:44:39.588Z,90.88
2018-07-25T02:45:39.591Z,90.78
2018-07-25T02:46:39.591Z,90.78
2018-07-25T02:47:39.469Z,91.26
2018-07-25T02:48:39.467Z,90.78
2018-07-25T02:49:39.466Z,90.97
2018-07-25T02:50:39.348Z,91.16
2018-07-25T02:51:39.347Z,91.26
2018-07-25T02:52:39.346Z,91.06
2018-07-25T02:53:39.225Z,90.88
2018-07-25T02:54:39.226Z,91.16
2018-07-25T02:55:39.228Z,91.89
2018-07-25T02:56:39.111Z,91.69
2018-07-25T02:57:39.103Z,91.89
2018-07-25T02:58:39.104Z,91.79
2018-07-25T02:59:38.984Z,91.79
2018-07-25T03:00:38.985Z,92.08
2018-07-25T03:01:38.983Z,92.66
2018-07-25T03:02:38.863Z,92.85
2018-07-25T03:03:38.866Z,92.85
2018-07-25T03:04:38.863Z,92.94
2018-07-25T03:05:38.743Z,92.37
2018-07-25T03:06:38.745Z,92.85
2018-07-25T03:07:38.745Z,92.76
2018-07-25T03:08:38.621Z,92.94
2018-07-25T03:09:38.624Z,92.76
2018-07-25T03:10:38.626Z,92.56
2018-07-25T03:11:38.501Z,93.04
2018-07-25T03:12:38.501Z,92.94
2018-07-25T03:13:38.503Z,92.37
2018-07-25T03:14:38.383Z,92.94
2018-07-25T03:15:38.382Z,93.43
2018-07-25T03:16:38.384Z,93.52
2018-07-25T03:17:38.263Z,93.43
2018-07-25T03:18:38.275Z,94.10
2018-07-25T03:19:38.259Z,94.20
2018-07-25T03:20:38.139Z,94.20
2018-07-25T03:21:38.140Z,94.59
2018-07-25T03:22:38.137Z,94.78
2018-07-25T03:23:38.020Z,94.87
2018-07-25T03:24:38.018Z,94.39
2018-07-25T03:25:38.019Z,94.29
2018-07-25T03:26:37.897Z,94.59
2018-07-25T03:27:37.898Z,94.49
2018-07-25T03:28:37.900Z,94.68
2018-07-25T03:29:37.776Z,94.25
2018-07-25T03:30:37.779Z,94.73
2018-07-25T03:31:37.865Z,94.73
2018-07-25T03:32:37.655Z,94.39
2018-07-25T03:33:37.655Z,94.25
2018-07-25T03:34:37.655Z,94.92
2018-07-25T03:35:37.535Z,94.73
2018-07-25T03:36:37.534Z,94.73
2018-07-25T03:37:37.537Z,94.54
2018-07-25T03:38:37.415Z,94.64
2018-07-25T03:39:37.416Z,94.44
2018-07-25T03:40:37.414Z,94.64
2018-07-25T03:41:37.297Z,94.25
2018-07-25T03:42:37.293Z,94.64
2018-07-25T03:43:37.291Z,94.44
2018-07-25T03:44:37.173Z,94.44
2018-07-25T03:45:37.174Z,94.73
2018-07-25T03:46:37.175Z,95.12
2018-07-25T03:47:37.060Z,95.12
2018-07-25T03:48:37.053Z,95.31
2018-07-25T03:49:37.053Z,95.12
2018-07-25T03:50:36.932Z,95.12
2018-07-25T03:51:36.933Z,95.50
2018-07-25T03:52:36.931Z,95.79
2018-07-25T03:53:36.810Z,95.60
2018-07-25T03:54:36.812Z,95.60
2018-07-25T03:55:36.817Z,95.98
2018-07-25T03:56:36.690Z,95.69
2018-07-25T03:57:36.692Z,96.17
2018-07-25T03:58:36.691Z,95.98
2018-07-25T03:59:36.570Z,95.69
2018-07-25T04:00:36.572Z,96.08
2018-07-25T04:01:36.568Z,95.69
2018-07-25T04:02:36.508Z,95.60
2018-07-25T04:03:36.447Z,95.89
2018-07-25T04:04:36.448Z,96.27
2018-07-25T04:05:36.328Z,96.66
2018-07-25T04:06:36.333Z,96.46
2018-07-25T04:07:36.330Z,95.55
2018-07-25T04:08:36.208Z,96.46
2018-07-25T04:09:36.212Z,96.37
2018-07-25T04:10:36.210Z,96.37
2018-07-25T04:11:36.091Z,95.55
2018-07-25T04:12:36.088Z,94.87
2018-07-25T04:13:36.092Z,95.65
2018-07-25T04:14:35.966Z,95.84
2018-07-25T04:15:35.967Z,95.74
2018-07-25T04:16:35.969Z,95.94
2018-07-25T04:17:35.852Z,96.27
2018-07-25T04:18:35.847Z,96.03
2018-07-25T04:19:35.846Z,96.27
2018-07-25T04:20:35.726Z,96.22
2018-07-25T04:21:35.723Z,96.89
2018-07-25T04:22:35.729Z,96.89
2018-07-25T04:23:35.607Z,96.42
2018-07-25T04:24:35.645Z,96.42
2018-07-25T04:25:35.604Z,97.19
2018-07-25T04:26:35.485Z,97.47
2018-07-25T04:27:35.485Z,97.14
2018-07-25T04:28:35.485Z,97.04
2018-07-25T04:29:35.364Z,96.99
2018-07-25T04:30:35.364Z,97.24
2018-07-25T04:31:35.365Z,97.28
2018-07-25T04:32:35.253Z,97.09
2018-07-25T04:33:35.247Z,96.99
2018-07-25T04:34:35.244Z,97.33
2018-07-25T04:35:35.124Z,97.86
2018-07-25T04:36:35.122Z,98.14
2018-07-25T04:37:35.130Z,98.14
2018-07-25T04:38:35.002Z,98.24
2018-07-25T04:39:35.003Z,98.19
2018-07-25T04:40:35.005Z,97.96
2018-07-25T04:41:34.885Z,98.24
2018-07-25T04:42:34.900Z,98.49
2018-07-25T04:43:34.880Z,97.91
2018-07-25T04:44:34.761Z,97.72
2018-07-25T04:45:34.760Z,98.19
2018-07-25T04:46:34.894Z,98.10
2018-07-25T04:47:34.644Z,97.81
2018-07-25T04:48:34.641Z,97.72
2018-07-25T04:49:34.639Z,97.04
2018-07-25T04:50:34.520Z,96.94
2018-07-25T04:51:34.519Z,97.14
2018-07-25T04:52:34.520Z,96.85
2018-07-25T04:53:34.400Z,97.24
2018-07-25T04:54:34.405Z,97.04
2018-07-25T04:55:34.401Z,97.04
2018-07-25T04:56:34.278Z,97.24
2018-07-25T04:57:34.277Z,97.42
2018-07-25T04:58:34.280Z,97.24
2018-07-25T04:59:34.158Z,97.24
2018-07-25T05:00:34.160Z,98.00
2018-07-25T05:01:34.157Z,97.91
2018-07-25T05:02:34.038Z,97.81
2018-07-25T05:03:34.037Z,97.91
2018-07-25T05:04:34.035Z,98.19
2018-07-25T05:05:33.921Z,98.00
2018-07-25T05:06:33.916Z,98.29
2018-07-25T05:07:33.919Z,98.39
2018-07-25T05:08:33.800Z,98.00
2018-07-25T05:09:33.796Z,98.19
2018-07-25T05:10:33.795Z,98.29
2018-07-25T05:11:33.676Z,98.44
2018-07-25T05:12:33.707Z,98.15
2018-07-25T05:13:33.675Z,98.24
2018-07-25T05:14:33.555Z,98.24
2018-07-25T05:15:33.553Z,97.76
2018-07-25T05:16:33.556Z,98.05
2018-07-25T05:17:33.433Z,98.24
2018-07-25T05:18:33.433Z,97.67
2018-07-25T05:19:33.435Z,97.67
2018-07-25T05:20:33.313Z,97.96
2018-07-25T05:21:33.315Z,97.86
2018-07-25T05:22:33.311Z,97.76
2018-07-25T05:23:33.193Z,97.19
2018-07-25T05:24:33.192Z,97.47
2018-07-25T05:25:33.190Z,97.28
2018-07-25T05:26:33.071Z,97.38
2018-07-25T05:27:33.079Z,96.99
2018-07-25T05:28:33.070Z,97.38
2018-07-25T05:29:32.953Z,97.33
2018-07-25T05:30:32.950Z,97.33
2018-07-25T05:31:32.950Z,97.04
2018-07-25T05:32:32.840Z,97.24
2018-07-25T05:33:32.829Z,96.94
2018-07-25T05:34:32.832Z,97.24
2018-07-25T05:35:32.711Z,96.94
2018-07-25T05:36:32.709Z,96.94
2018-07-25T05:37:32.709Z,96.27
2018-07-25T05:38:32.592Z,95.98
2018-07-25T05:39:32.591Z,95.21
2018-07-25T05:40:32.589Z,94.63
2018-07-25T05:41:32.467Z,94.63
2018-07-25T05:42:32.469Z,94.06
2018-07-25T05:43:32.468Z,93.81
2018-07-25T05:44:32.347Z,93.13
2018-07-25T05:45:32.347Z,92.94
2018-07-25T05:46:32.346Z,92.27
2018-07-25T05:47:32.228Z,92.27
2018-07-25T05:48:32.227Z,91.88
2018-07-25T05:49:32.299Z,90.92
2018-07-25T05:50:32.106Z,91.20
2018-07-25T05:51:32.109Z,89.95
2018-07-25T05:52:32.106Z,90.53
2018-07-25T05:53:31.986Z,90.34
2018-07-25T05:54:31.988Z,89.67
2018-07-25T05:55:31.984Z,89.61
2018-07-25T05:56:31.867Z,89.61
2018-07-25T05:57:31.867Z,89.13
2018-07-25T05:58:31.864Z,88.26
2018-07-25T05:59:31.748Z,87.68
2018-07-25T06:00:31.745Z,88.07
2018-07-25T06:01:31.759Z,87.88
2018-07-25T06:02:31.623Z,88.07
2018-07-25T06:03:31.713Z,87.82
2018-07-25T06:04:31.624Z,87.15
2018-07-25T06:05:31.504Z,85.89
2018-07-25T06:06:31.503Z,85.99
2018-07-25T06:07:31.502Z,86.08
2018-07-25T06:08:31.431Z,85.99
2018-07-25T06:09:31.381Z,85.31
2018-07-25T06:10:31.382Z,85.50
2018-07-25T06:11:31.261Z,85.60
2018-07-25T06:12:31.265Z,85.26
2018-07-25T06:13:31.263Z,84.68
2018-07-25T06:14:31.141Z,84.00
2018-07-25T06:15:31.145Z,85.64
2018-07-25T06:16:31.141Z,85.74
2018-07-25T06:17:31.020Z,85.45
2018-07-25T06:18:31.047Z,84.97
2018-07-25T06:19:31.019Z,84.68
2018-07-25T06:20:30.907Z,84.58
2018-07-25T06:21:30.898Z,84.78
2018-07-25T06:22:30.899Z,84.05
2018-07-25T06:23:30.856Z,84.00
2018-07-25T06:24:30.778Z,83.66
2018-07-25T06:25:30.778Z,83.85
2018-07-25T06:26:30.780Z,84.24
2018-07-25T06:27:30.657Z,83.37
2018-07-25T06:28:30.661Z,82.89
2018-07-25T06:29:30.657Z,83.18
2018-07-25T06:30:30.538Z,82.40
2018-07-25T06:31:30.537Z,81.53
2018-07-25T06:32:30.536Z,81.67
2018-07-25T06:33:30.415Z,82.25
2018-07-25T06:34:30.416Z,81.67
2018-07-25T06:35:30.417Z,81.09
2018-07-25T06:36:30.294Z,81.19
2018-07-25T06:37:30.296Z,80.51
2018-07-25T06:38:30.295Z,80.84
2018-07-25T06:39:30.173Z,80.32
2018-07-25T06:40:30.174Z,80.12
2018-07-25T06:41:30.177Z,80.07
2018-07-25T06:42:30.054Z,79.78
2018-07-25T06:43:30.098Z,79.29
2018-07-25T06:44:30.054Z,79.00
2018-07-25T06:45:29.935Z,78.81
2018-07-25T06:46:29.932Z,78.61
2018-07-25T06:47:29.934Z,78.61
2018-07-25T06:48:29.815Z,79.00
2018-07-25T06:49:29.811Z,77.98
2018-07-25T06:50:29.812Z,78.08
2018-07-25T06:51:29.813Z,77.98
2018-07-25T06:52:29.691Z,77.40
2018-07-25T06:53:29.690Z,77.20
2018-07-25T06:54:29.695Z,76.14
2018-07-25T06:55:29.572Z,76.43
2018-07-25T06:56:29.572Z,76.46
2018-07-25T06:57:29.571Z,76.43
2018-07-25T06:58:29.452Z,76.46
2018-07-25T06:59:29.450Z,76.28
2018-07-25T07:00:29.449Z,76.08
2018-07-25T07:01:29.328Z,76.28
2018-07-25T07:02:29.330Z,76.46
2018-07-25T07:03:29.334Z,75.70
2018-07-25T07:04:29.210Z,75.89
2018-07-25T07:05:29.211Z,76.56
2018-07-25T07:06:29.231Z,75.98
2018-07-25T07:07:29.087Z,75.54
2018-07-25T07:08:29.090Z,75.73
2018-07-25T07:09:29.091Z,74.57
2018-07-25T07:10:29.045Z,74.47
2018-07-25T07:11:28.965Z,74.08
2018-07-25T07:12:28.967Z,76.02
2018-07-25T07:13:28.970Z,75.44
2018-07-25T07:14:28.847Z,75.34
2018-07-25T07:15:28.847Z,74.66
2018-07-25T07:16:28.846Z,72.83
2018-07-25T07:17:28.786Z,73.31
2018-07-25T07:18:28.726Z,73.64
2018-07-25T07:19:28.726Z,73.83
2018-07-25T07:20:28.803Z,72.77
2018-07-25T07:21:28.604Z,71.80
2018-07-25T07:22:28.615Z,70.83
2018-07-25T07:23:28.490Z,70.73
2018-07-25T07:24:28.489Z,72.28
2018-07-25T07:25:28.487Z,71.99
2018-07-25T07:26:28.363Z,70.92
2018-07-25T07:27:28.368Z,70.09
2018-07-25T07:28:28.361Z,69.99
2018-07-25T07:29:28.360Z,70.28
2018-07-25T07:30:28.245Z,70.67
2018-07-25T07:31:28.286Z,69.41
2018-07-25T07:32:28.244Z,70.47
2018-07-25T07:33:28.134Z,69.41
2018-07-25T07:34:28.122Z,68.82
2018-07-25T07:35:28.121Z,68.92
2018-07-25T07:36:27.999Z,68.82
2018-07-25T07:37:28.199Z,69.24
2018-07-25T07:38:27.998Z,68.86
2018-07-25T07:39:27.879Z,68.96
2018-07-25T07:40:27.879Z,69.34
2018-07-25T07:41:27.878Z,68.76
2018-07-25T07:42:27.757Z,70.21
2018-07-25T07:43:27.757Z,70.03
2018-07-25T07:44:27.764Z,69.54
2018-07-25T07:45:27.760Z,69.54
2018-07-25T07:46:27.638Z,68.79
2018-07-25T07:47:27.639Z,68.60
2018-07-25T07:48:27.636Z,68.79
2018-07-25T07:49:27.519Z,68.79
2018-07-25T07:50:27.517Z,67.34
2018-07-25T07:51:27.517Z,67.83
2018-07-25T07:52:27.400Z,68.83
2018-07-25T07:53:27.397Z,69.38
2018-07-25T07:54:27.395Z,68.93
2018-07-25T07:55:27.294Z,68.63
2018-07-25T07:56:27.279Z,67.47
2018-07-25T07:57:27.275Z,68.44
2018-07-25T07:58:27.275Z,67.57
2018-07-25T07:59:27.215Z,67.37
2018-07-25T08:00:27.155Z,66.30
2018-07-25T08:01:27.153Z,66.40
2018-07-25T08:02:27.033Z,65.75
2018-07-25T08:03:27.057Z,65.17
2018-07-25T08:04:27.034Z,66.34
2018-07-25T08:05:26.912Z,67.41
2018-07-25T08:06:26.913Z,65.75
2018-07-25T08:07:26.912Z,65.85
2018-07-25T08:08:26.796Z,65.01
2018-07-25T08:09:26.793Z,65.01
2018-07-25T08:10:26.790Z,65.40
2018-07-25T08:11:26.792Z,65.20
2018-07-25T08:12:26.671Z,65.20
2018-07-25T08:13:26.671Z,64.72
2018-07-25T08:14:26.673Z,63.94
2018-07-25T08:15:26.550Z,65.30
2018-07-25T08:16:26.548Z,63.97
2018-07-25T08:17:26.549Z,64.07
2018-07-25T08:18:26.428Z,63.59
2018-07-25T08:19:26.429Z,63.00
2018-07-25T08:20:26.429Z,63.78
2018-07-25T08:21:26.387Z,62.90
2018-07-25T08:22:26.308Z,61.87
2018-07-25T08:23:26.384Z,61.96
2018-07-25T08:24:26.316Z,63.42
2018-07-25T08:25:26.191Z,64.39
2018-07-25T08:26:26.187Z,63.71
2018-07-25T08:27:26.187Z,62.45
2018-07-25T08:28:26.068Z,61.47
2018-07-25T08:29:26.066Z,61.38
2018-07-25T08:30:26.068Z,61.57
2018-07-25T08:31:25.948Z,62.19
2018-07-25T08:32:25.945Z,62.48
2018-07-25T08:33:25.946Z,61.31
2018-07-25T08:34:25.998Z,60.14
2018-07-25T08:35:25.826Z,61.11
2018-07-25T08:36:25.824Z,60.44
2018-07-25T08:37:25.825Z,61.31
2018-07-25T08:38:25.707Z,61.24
2018-07-25T08:39:25.704Z,62.48
2018-07-25T08:40:25.708Z,60.27
2018-07-25T08:41:25.586Z,61.05
2018-07-25T08:42:25.585Z,59.98
2018-07-25T08:43:25.585Z,60.17
2018-07-25T08:44:25.583Z,60.46
2018-07-25T08:45:25.464Z,59.69
2018-07-25T08:46:25.462Z,60.17
2018-07-25T08:47:25.464Z,59.42
2018-07-25T08:48:25.342Z,60.39
2018-07-25T08:49:25.350Z,60.20
2018-07-25T08:50:25.342Z,59.42
2018-07-25T08:51:25.223Z,58.54
2018-07-25T08:52:25.249Z,58.35
2018-07-25T08:53:25.223Z,58.06
2018-07-25T08:54:25.219Z,59.23
2018-07-25T08:55:25.104Z,58.97
2018-07-25T08:56:25.098Z,59.81
2018-07-25T08:57:25.102Z,60.03
2018-07-25T08:58:24.978Z,59.94
2018-07-25T08:59:24.978Z,60.72
2018-07-25T09:00:24.981Z,58.87
2018-07-25T09:01:24.981Z,59.35
2018-07-25T09:02:24.861Z,58.40
2018-07-25T09:03:24.858Z,58.60
2018-07-25T09:04:24.858Z,58.22
2018-07-25T09:05:24.741Z,58.22
2018-07-25T09:06:24.763Z,58.70
2018-07-25T09:07:24.763Z,58.60
2018-07-25T09:08:24.616Z,57.24
2018-07-25T09:09:24.615Z,58.14
2018-07-25T09:10:24.627Z,57.56
2018-07-25T09:11:24.623Z,57.07
2018-07-25T09:12:24.494Z,57.17
2018-07-25T09:13:24.505Z,56.97
2018-07-25T09:14:24.495Z,56.87
2018-07-25T09:15:24.380Z,56.77
2018-07-25T09:16:24.373Z,55.80
2018-07-25T09:17:24.374Z,56.22
2018-07-25T09:18:24.374Z,55.44
2018-07-25T09:19:24.253Z,54.36
2018-07-25T09:20:24.253Z,54.85
2018-07-25T09:21:24.252Z,54.85
2018-07-25T09:22:24.134Z,54.75
2018-07-25T09:23:24.132Z,54.79
2018-07-25T09:24:24.133Z,54.39
2018-07-25T09:25:24.140Z,55.57
2018-07-25T09:26:24.018Z,54.49
2018-07-25T09:27:24.010Z,54.00
2018-07-25T09:28:24.012Z,52.93
2018-07-25T09:29:23.890Z,54.00
2018-07-25T09:30:23.900Z,53.91
2018-07-25T09:31:23.890Z,55.59
2018-07-25T09:32:23.769Z,54.91
2018-07-25T09:33:23.774Z,53.74
2018-07-25T09:34:23.792Z,53.54
2018-07-25T09:35:23.769Z,53.05
2018-07-25T09:36:23.650Z,52.59
2018-07-25T09:37:23.649Z,52.59
2018-07-25T09:38:23.648Z,52.78
2018-07-25T09:39:23.530Z,52.69
2018-07-25T09:40:23.528Z,52.20
2018-07-25T09:41:23.527Z,52.71
2018-07-25T09:42:23.527Z,52.03
2018-07-25T09:43:23.408Z,51.54
2018-07-25T09:44:23.406Z,52.03
2018-07-25T09:45:23.406Z,51.64
2018-07-25T09:46:23.287Z,51.54
2018-07-25T09:47:23.285Z,51.95
2018-07-25T09:48:23.301Z,51.46
2018-07-25T09:49:23.289Z,51.17
2018-07-25T09:50:23.165Z,50.29
2018-07-25T09:51:23.167Z,49.04
2018-07-25T09:52:23.169Z,49.63
2018-07-25T09:53:23.046Z,50.12
2018-07-25T09:54:23.050Z,48.85
2018-07-25T09:55:23.046Z,49.14
2018-07-25T09:56:23.065Z,48.46
2018-07-25T09:57:22.924Z,48.92
2018-07-25T09:58:22.923Z,49.60
2018-07-25T09:59:22.924Z,49.70
2018-07-25T10:00:22.809Z,49.90
2018-07-25T10:01:22.805Z,50.56
2018-07-25T10:02:22.808Z,51.05
2018-07-25T10:03:22.805Z,50.27
2018-07-25T10:04:22.681Z,49.09
2018-07-25T10:05:22.688Z,49.97
2018-07-25T10:06:22.694Z,50.56
2018-07-25T10:07:22.894Z,50.17
2018-07-25T10:08:22.585Z,51.12
2018-07-25T10:09:22.568Z,50.93
2018-07-25T10:10:22.568Z,49.75
2018-07-25T10:11:22.461Z,49.16
2018-07-25T10:12:22.440Z,50.54
2018-07-25T10:13:22.443Z,50.63
2018-07-25T10:14:22.402Z,49.85
2018-07-25T10:15:22.347Z,50.73
2018-07-25T10:16:22.322Z,50.83
2018-07-25T10:17:22.340Z,50.93
2018-07-25T10:18:22.204Z,50.83
2018-07-25T10:19:22.203Z,50.71
2018-07-25T10:20:22.203Z,50.51
2018-07-25T10:21:22.156Z,51.10
2018-07-25T10:22:22.080Z,50.02
2018-07-25T10:23:22.102Z,51.10
2018-07-25T10:24:22.079Z,50.71
2018-07-25T10:25:21.961Z,51.37
2018-07-25T10:26:21.959Z,51.27
2018-07-25T10:27:22.057Z,51.46
2018-07-25T10:28:21.916Z,51.37
2018-07-25T10:29:21.838Z,51.27
2018-07-25T10:30:21.837Z,51.56
2018-07-25T10:31:21.839Z,51.95
2018-07-25T10:32:21.739Z,52.44
2018-07-25T10:33:21.807Z,51.46
2018-07-25T10:34:21.749Z,52.05
2018-07-25T10:35:21.675Z,51.66
2018-07-25T10:36:21.595Z,51.76
2018-07-25T10:37:21.615Z,51.56
2018-07-25T10:38:21.604Z,51.37
2018-07-25T10:39:21.475Z,50.88
2018-07-25T10:40:21.474Z,50.59
2018-07-25T10:41:21.473Z,50.98
2018-07-25T10:42:21.354Z,51.10
2018-07-25T10:43:21.353Z,50.61
2018-07-25T10:44:21.430Z,51.00
2018-07-25T10:45:21.354Z,50.81
2018-07-25T10:46:21.232Z,50.12
2018-07-25T10:47:21.231Z,50.51
2018-07-25T10:48:21.233Z,50.12
2018-07-25T10:49:21.111Z,50.34
2018-07-25T10:50:21.110Z,49.85
2018-07-25T10:51:21.170Z,50.44
2018-07-25T10:52:21.110Z,49.65
2018-07-25T10:53:20.990Z,49.77
2018-07-25T10:54:20.995Z,49.68
2018-07-25T10:55:20.994Z,48.80
2018-07-25T10:56:20.990Z,49.60
2018-07-25T10:57:20.869Z,48.33
2018-07-25T10:58:20.868Z,48.72
2018-07-25T10:59:20.869Z,48.85
2018-07-25T11:00:20.758Z,48.16
2018-07-25T11:01:20.757Z,47.18
2018-07-25T11:02:20.749Z,47.28
2018-07-25T11:03:20.629Z,47.30
2018-07-25T11:04:20.639Z,46.81
2018-07-25T11:05:20.626Z,47.40
2018-07-25T11:06:20.628Z,46.72
2018-07-25T11:07:20.509Z,45.73
2018-07-25T11:08:20.512Z,47.33
2018-07-25T11:09:20.509Z,47.13
2018-07-25T11:10:20.464Z,45.76
2018-07-25T11:11:20.389Z,46.05
2018-07-25T11:12:20.389Z,45.86
2018-07-25T11:13:20.385Z,45.19
2018-07-25T11:14:20.264Z,45.66
2018-07-25T11:15:20.267Z,46.25
2018-07-25T11:16:20.404Z,46.05
2018-07-25T11:17:20.268Z,45.00
2018-07-25T11:18:20.149Z,44.80
2018-07-25T11:19:20.144Z,44.90
2018-07-25T11:20:20.143Z,44.70
2018-07-25T11:21:20.024Z,44.21
2018-07-25T11:22:20.023Z,44.62
2018-07-25T11:23:20.025Z,43.94
2018-07-25T11:24:20.024Z,43.84
2018-07-25T11:25:19.903Z,43.74
2018-07-25T11:26:19.902Z,43.45
2018-07-25T11:27:19.902Z,44.13
2018-07-25T11:28:19.900Z,43.65
2018-07-25T11:29:19.783Z,43.35
2018-07-25T11:30:19.781Z,43.37
2018-07-25T11:31:19.786Z,43.57
2018-07-25T11:32:19.662Z,44.45
2018-07-25T11:33:19.672Z,44.06
2018-07-25T11:34:19.661Z,43.27
2018-07-25T11:35:19.672Z,43.57
2018-07-25T11:36:19.540Z,43.57
2018-07-25T11:37:19.540Z,43.10
2018-07-25T11:38:19.539Z,42.61
2018-07-25T11:39:19.498Z,42.51
2018-07-25T11:40:19.420Z,42.51
2018-07-25T11:41:19.421Z,42.61
2018-07-25T11:42:19.419Z,42.41
2018-07-25T11:43:19.299Z,42.11
2018-07-25T11:44:19.305Z,42.02
2018-07-25T11:45:19.298Z,42.02
2018-07-25T11:46:19.298Z,42.02
2018-07-25T11:47:19.178Z,42.11
2018-07-25T11:48:22.902Z,41.63
2018-07-25T11:49:19.176Z,42.32
2018-07-25T11:50:19.225Z,42.51
2018-07-25T11:51:19.055Z,41.55
2018-07-25T11:52:19.060Z,41.35
2018-07-25T11:53:19.057Z,41.27
2018-07-25T11:54:18.937Z,40.78
2018-07-25T11:55:18.953Z,40.39
2018-07-25T11:56:18.935Z,40.58
2018-07-25T11:57:18.936Z,39.72
2018-07-25T11:58:18.814Z,39.52
2018-07-25T11:59:18.814Z,39.54
2018-07-25T12:00:18.822Z,38.66
2018-07-25T12:01:18.831Z,38.36
2018-07-25T12:02:18.693Z,38.28
2018-07-25T12:03:18.691Z,37.71
2018-07-25T12:04:18.691Z,37.71
2018-07-25T12:05:18.654Z,37.34
2018-07-25T12:06:18.571Z,36.86
2018-07-25T12:07:18.585Z,36.17
2018-07-25T12:08:18.579Z,35.69
2018-07-25T12:09:18.454Z,35.40
2018-07-25T12:10:18.454Z,35.31
2018-07-25T12:11:18.450Z,35.93
2018-07-25T12:13:18.330Z,34.38
2018-07-25T12:14:18.334Z,34.30
2018-07-25T12:15:18.253Z,33.62
2018-07-25T12:16:18.222Z,33.45
2018-07-25T12:17:18.189Z,32.98
2018-07-25T12:18:18.157Z,31.60
2018-07-25T12:19:18.126Z,31.23
2018-07-25T12:20:18.093Z,31.32
2018-07-25T12:21:18.119Z,30.56
2018-07-25T12:22:18.038Z,30.47
2018-07-25T12:23:18.000Z,30.70
2018-07-25T12:24:17.970Z,30.32
2018-07-25T12:25:17.939Z,28.96
2018-07-25T12:27:17.877Z,28.28
2018-07-25T12:28:17.843Z,28.10
2018-07-25T12:29:17.814Z,26.32
2018-07-25T12:30:17.787Z,25.73
2018-07-25T12:31:17.754Z,25.74
2018-07-25T12:32:17.723Z,25.36
2018-07-25T12:33:17.696Z,24.86
2018-07-25T12:34:17.663Z,24.17
2018-07-25T12:35:17.630Z,24.68
2018-07-25T12:36:17.599Z,24.36
2018-07-25T12:37:17.569Z,24.73
2018-07-25T12:38:17.541Z,25.02
2018-07-25T12:39:17.508Z,24.75
2018-07-25T12:40:17.481Z,26.33
2018-07-25T12:41:17.455Z,26.02
2018-07-25T12:42:17.421Z,25.52
2018-07-25T12:43:17.394Z,24.85
2018-07-25T12:44:17.364Z,23.97
2018-07-25T12:45:17.332Z,23.00
2018-07-25T12:46:17.301Z,24.11
2018-07-25T12:47:17.276Z,22.81
2018-07-25T12:48:17.249Z,22.03
2018-07-25T12:49:17.211Z,22.43
2018-07-25T12:50:17.182Z,22.84
2018-07-25T12:51:17.154Z,22.04
2018-07-25T12:52:17.122Z,21.23
2018-07-25T12:53:17.146Z,22.04
2018-07-25T12:54:17.068Z,21.84